createdAt,value
2018-03-28T00:09:26.200Z,1000.8
2018-03-28T00:20:11.708Z,1000.6
2018-03-28T00:30:23.921Z,1000.5
2018-03-28T00:40:39.695Z,1000.5
2018-03-28T00:50:53.431Z,1000.5
2018-03-28T01:01:06.924Z,1000.5
2018-03-28T01:11:21.116Z,1000.5
2018-03-28T01:21:35.209Z,1000.4
2018-03-28T01:32:19.934Z,1000.4
2018-03-28T01:42:33.485Z,1000.3
2018-03-28T01:52:47.779Z,1000.3
2018-03-28T02:03:01.783Z,1000.4
2018-03-28T02:13:16.242Z,1000.3
2018-03-28T02:23:30.718Z,1000.2
2018-03-28T02:33:44.347Z,1000.1
2018-03-28T02:43:55.997Z,1000.2
2018-03-28T02:54:41.535Z,1000.1
2018-03-28T03:04:55.669Z,1000.2
2018-03-28T03:15:08.931Z,1000.1
2018-03-28T03:25:53.714Z,1000.1
2018-03-28T03:36:07.789Z,1000.1
2018-03-28T03:46:21.634Z,1000.1
2018-03-28T03:57:08.681Z,1000.0
2018-03-28T04:07:53.816Z,1000.0
2018-03-28T04:18:39.401Z,1000.0
2018-03-28T04:29:04.247Z,1000.0
2018-03-28T04:39:18.081Z,999.8
2018-03-28T04:49:32.589Z,999.7
2018-03-28T04:59:46.581Z,999.8
2018-03-28T05:10:00.757Z,999.9
2018-03-28T05:20:12.120Z,1000.0
2018-03-28T05:30:33.960Z,1000.0
2018-03-28T05:40:48.366Z,1000.2
2018-03-28T05:51:01.986Z,1000.1
2018-03-28T06:01:47.431Z,999.8
2018-03-28T06:12:01.420Z,999.9
2018-03-28T06:22:23.513Z,999.8
2018-03-28T06:32:52.038Z,999.6
2018-03-28T06:53:20.144Z,999.6
2018-03-28T07:03:34.470Z,999.6
2018-03-28T07:13:48.336Z,999.6
2018-03-28T07:24:03.098Z,999.7
2018-03-28T07:34:25.364Z,999.6
2018-03-28T07:44:37.111Z,999.6
2018-03-28T07:54:50.677Z,999.5
2018-03-28T08:05:35.856Z,999.5
2018-03-28T08:15:47.279Z,999.5
2018-03-28T08:26:31.836Z,999.4
2018-03-28T08:36:48.267Z,999.3
2018-03-28T08:47:00.217Z,999.2
2018-03-28T08:57:14.444Z,999.2
2018-03-28T09:07:28.659Z,999.2
2018-03-28T09:17:42.371Z,999.2
2018-03-28T09:28:30.086Z,999.0
2018-03-28T09:38:41.610Z,999.1
2018-03-28T09:49:27.164Z,998.9
2018-03-28T09:59:41.310Z,998.8
2018-03-28T10:09:55.600Z,998.7
2018-03-28T10:20:09.420Z,998.7
2018-03-28T10:30:23.074Z,998.5
2018-03-28T10:40:37.767Z,998.6
2018-03-28T10:50:51.350Z,998.4
2018-03-28T11:01:05.788Z,998.3
2018-03-28T11:11:19.861Z,998.2
2018-03-28T11:21:31.108Z,998.0
2018-03-28T11:31:45.516Z,998.0
2018-03-28T11:41:59.467Z,997.8
2018-03-28T11:52:13.983Z,997.7
2018-03-28T12:02:28.926Z,997.6
2018-03-28T12:20:26.945Z,997.2
2018-03-28T12:31:15.349Z,996.8
2018-03-28T14:05:09.603Z,995.0
2018-03-28T14:15:27.221Z,994.9
2018-03-28T14:26:34.949Z,994.7
2018-03-28T14:38:42.811Z,994.4
2018-03-28T14:48:57.730Z,994.3
2018-03-28T15:21:28.546Z,993.7
2018-03-28T15:31:44.008Z,993.5
2018-03-28T15:42:52.995Z,993.3
2018-03-28T15:53:08.552Z,993.1
2018-03-28T16:03:57.511Z,992.6
2018-03-28T16:15:06.254Z,992.1
2018-03-28T16:25:52.614Z,992.2
2018-03-28T17:42:31.856Z,991.1
2018-03-28T17:52:45.838Z,991.1
2018-03-28T18:03:31.712Z,991.1
2018-03-28T18:17:10.254Z,990.9
2018-03-28T18:28:01.293Z,990.9
2018-03-28T18:38:48.446Z,990.9
2018-03-28T18:50:00.935Z,991.1
2018-03-28T19:01:05.444Z,991.1
2018-03-28T19:11:57.870Z,991.2
2018-03-28T19:22:52.920Z,991.6
2018-03-28T19:33:41.956Z,991.7
2018-03-28T19:47:30.237Z,992.3
2018-03-28T19:59:15.150Z,992.4
2018-03-28T20:09:29.603Z,992.7
2018-03-28T20:19:42.143Z,993.0
2018-03-28T20:29:56.211Z,993.1
2018-03-28T20:40:41.628Z,993.3
2018-03-28T20:50:55.143Z,993.3
2018-03-28T21:01:06.315Z,993.8
2018-03-28T21:11:19.924Z,994.1
2018-03-28T21:21:32.037Z,994.2
2018-03-28T21:31:46.447Z,994.4
2018-03-28T21:42:00.679Z,994.7
2018-03-28T21:52:46.320Z,995.1
2018-03-28T22:02:57.678Z,995.3
2018-03-28T22:13:09.956Z,995.5
2018-03-28T22:23:24.304Z,995.7
2018-03-28T22:34:09.673Z,996.0
2018-03-28T22:44:22.973Z,996.3
2018-03-28T22:54:37.182Z,996.6
2018-03-28T23:04:50.508Z,996.6
2018-03-28T23:15:01.924Z,996.7
2018-03-28T23:25:16.111Z,996.9
2018-03-28T23:35:30.058Z,997.1
2018-03-28T23:45:46.160Z,997.2
2018-03-28T23:56:00.069Z,997.3
